Roche Harbor, Washington
Current Conditions -  °F | °C
As of 5:53 PM on Friday 24 Oct 2014 (Local Time) from KFHR Reporting Station
Clear Clear  
Wind Chill: 53°   Ceiling: Unl
Heat Index: 53°   Visibility: 10mi
Dew Point: 44°   Wind: 6mph
Humidity: 71%   Direction: 340°NNW
Pressure: 29.91"   Gusts: NA
Location:  48.5377°N, 123.083°W
Report Text: KFHR 250053Z AUTO 34005KT 10SM CLR 12/07 A2991 RMK AO2 SLP129 T01170067
Loading
Personal Weather Stations






























Interactive Weather Map New forecast layout! Learn more

10-Day Weather Forecast

Advertisements
Track Severe Weather on mobile